createdAt,value
2018-09-18T00:01:43.523Z,93.90
2018-09-18T00:04:12.406Z,93.80
2018-09-18T00:06:41.914Z,93.60
2018-09-18T00:09:11.444Z,93.70
2018-09-18T00:11:40.574Z,93.80
2018-09-18T00:14:09.398Z,93.60
2018-09-18T00:16:43.095Z,93.80
2018-09-18T00:19:13.312Z,93.80
2018-09-18T00:21:42.375Z,94.20
2018-09-18T00:24:11.995Z,94.50
2018-09-18T00:26:41.198Z,94.40
2018-09-18T00:29:13.395Z,94.30
2018-09-18T00:31:42.092Z,94.40
2018-09-18T00:34:14.605Z,94.50
2018-09-18T00:36:43.177Z,94.60
2018-09-18T00:39:13.225Z,94.60
2018-09-18T00:41:47.711Z,94.60
2018-09-18T00:44:17.380Z,94.60
2018-09-18T00:46:46.707Z,94.60
2018-09-18T00:49:15.393Z,94.70
2018-09-18T00:51:44.590Z,94.90
2018-09-18T00:56:47.040Z,94.90
2018-09-18T00:59:16.157Z,94.90
2018-09-18T01:01:44.725Z,94.90
2018-09-18T01:04:13.469Z,94.90
2018-09-18T01:06:42.122Z,95.00
2018-09-18T01:09:14.087Z,95.00
2018-09-18T01:11:42.776Z,94.90
2018-09-18T01:14:14.088Z,95.20
2018-09-18T01:16:42.768Z,95.00
2018-09-18T01:19:11.404Z,95.10
2018-09-18T01:21:41.121Z,95.10
2018-09-18T01:24:09.898Z,95.10
2018-09-18T01:26:38.980Z,95.20
2018-09-18T01:29:07.580Z,95.00
2018-09-18T01:31:36.316Z,95.40
2018-09-18T01:34:05.487Z,95.50
2018-09-18T01:36:34.350Z,94.80
2018-09-18T01:39:07.250Z,95.70
2018-09-18T01:41:35.891Z,95.70
2018-09-18T01:44:06.602Z,95.60
2018-09-18T01:46:35.269Z,95.60
2018-09-18T01:49:10.426Z,95.40
2018-09-18T01:51:39.103Z,95.30
2018-09-18T01:54:07.838Z,95.30
2018-09-18T01:56:36.919Z,95.40
2018-09-18T01:59:05.756Z,95.70
2018-09-18T02:01:34.963Z,95.80
2018-09-18T02:04:05.588Z,95.80
2018-09-18T02:06:34.193Z,95.80
2018-09-18T02:09:04.815Z,95.80
2018-09-18T02:11:33.766Z,95.50
2018-09-18T02:14:04.418Z,95.40
2018-09-18T02:16:33.566Z,95.30
2018-09-18T02:19:02.747Z,95.30
2018-09-18T02:21:31.334Z,94.70
2018-09-18T02:24:01.716Z,95.50
2018-09-18T02:26:31.258Z,95.60
2018-09-18T02:29:02.726Z,95.70
2018-09-18T02:31:32.742Z,95.70
2018-09-18T02:34:01.379Z,94.90
2018-09-18T02:36:33.215Z,95.90
2018-09-18T02:39:03.634Z,95.80
2018-09-18T02:41:32.271Z,96.00
2018-09-18T02:44:02.939Z,95.40
2018-09-18T02:46:31.623Z,96.00
2018-09-18T02:49:00.193Z,96.10
2018-09-18T02:51:28.815Z,96.20
2018-09-18T02:53:57.475Z,96.10
2018-09-18T02:56:26.074Z,96.20
2018-09-18T02:58:58.130Z,96.10
2018-09-18T03:01:26.826Z,96.20
2018-09-18T03:03:55.442Z,96.70
2018-09-18T03:06:24.337Z,96.30
2018-09-18T03:08:53.573Z,96.30
2018-09-18T03:11:22.267Z,96.30
2018-09-18T03:13:50.887Z,96.40
2018-09-18T03:16:19.384Z,96.40
2018-09-18T03:18:51.917Z,95.80
2018-09-18T03:21:20.905Z,96.80
2018-09-18T03:23:49.483Z,96.80
2018-09-18T03:26:18.122Z,96.70
2018-09-18T03:28:46.730Z,96.90
2018-09-18T03:31:15.371Z,97.10
2018-09-18T03:33:44.078Z,97.00
2018-09-18T03:36:20.884Z,97.10
2018-09-18T03:38:49.944Z,96.90
2018-09-18T03:41:18.603Z,97.10
2018-09-18T03:43:47.223Z,97.10
2018-09-18T03:46:15.967Z,97.10
2018-09-18T03:48:47.646Z,97.10
2018-09-18T03:51:19.885Z,96.80
2018-09-18T03:53:48.572Z,96.80
2018-09-18T03:56:17.221Z,97.00
2018-09-18T03:58:45.938Z,97.10
2018-09-18T04:01:14.547Z,97.10
2018-09-18T04:03:46.784Z,96.90
2018-09-18T04:06:17.016Z,97.20
2018-09-18T04:08:47.979Z,97.10
2018-09-18T04:11:16.569Z,96.90
2018-09-18T04:13:45.113Z,96.80
2018-09-18T04:16:13.914Z,96.90
2018-09-18T04:18:44.969Z,96.80
2018-09-18T04:21:13.675Z,96.60
2018-09-18T04:23:44.275Z,96.30
2018-09-18T04:26:12.963Z,96.80
2018-09-18T04:28:41.549Z,97.00
2018-09-18T04:31:11.166Z,98.00
2018-09-18T04:33:39.799Z,97.10
2018-09-18T04:36:08.325Z,97.10
2018-09-18T04:38:37.216Z,97.10
2018-09-18T04:41:06.255Z,97.10
2018-09-18T04:43:34.954Z,97.10
2018-09-18T04:46:05.912Z,97.20
2018-09-18T04:48:34.622Z,97.20
2018-09-18T04:51:03.656Z,97.50
2018-09-18T04:53:32.304Z,97.50
2018-09-18T04:56:02.951Z,97.60
2018-09-18T04:58:31.925Z,97.60
2018-09-18T05:01:00.643Z,97.50
2018-09-18T05:03:39.121Z,97.50
2018-09-18T05:06:07.724Z,97.40
2018-09-18T05:08:36.475Z,97.50
2018-09-18T05:11:06.020Z,97.60
2018-09-18T05:13:34.671Z,97.40
2018-09-18T05:16:03.391Z,97.60
2018-09-18T05:18:34.081Z,98.60
2018-09-18T05:21:02.704Z,97.80
2018-09-18T05:23:32.758Z,97.80
2018-09-18T05:26:01.386Z,97.90
2018-09-18T05:28:30.898Z,97.70
2018-09-18T05:30:59.703Z,97.60
2018-09-18T05:33:37.919Z,97.40
2018-09-18T05:36:17.935Z,97.40
2018-09-18T05:38:46.932Z,97.30
2018-09-18T05:41:15.537Z,97.10
2018-09-18T05:43:44.290Z,97.20
2018-09-18T05:46:12.902Z,96.50
2018-09-18T05:48:42.935Z,97.10
2018-09-18T05:51:11.692Z,97.10
2018-09-18T05:53:40.366Z,97.00
2018-09-18T05:56:09.142Z,96.90
2018-09-18T05:58:37.819Z,96.80
2018-09-18T06:01:06.636Z,96.90
2018-09-18T06:03:35.959Z,96.80
2018-09-18T06:06:04.566Z,96.70
2018-09-18T06:08:34.046Z,96.70
2018-09-18T06:11:04.264Z,96.80
2018-09-18T06:13:32.927Z,96.90
2018-09-18T06:16:02.066Z,96.90
2018-09-18T06:18:30.643Z,96.40
2018-09-18T06:20:59.614Z,96.60
2018-09-18T06:23:28.303Z,97.50
2018-09-18T06:25:59.848Z,96.50
2018-09-18T06:28:28.533Z,96.50
2018-09-18T06:30:57.304Z,96.70
2018-09-18T06:33:26.014Z,96.60
2018-09-18T06:35:56.440Z,96.50
2018-09-18T06:38:25.005Z,96.50
2018-09-18T06:40:53.689Z,96.30
2018-09-18T06:43:22.354Z,96.10
2018-09-18T06:45:51.021Z,96.00
2018-09-18T06:48:20.783Z,95.90
2018-09-18T06:50:49.483Z,95.60
2018-09-18T06:53:18.696Z,95.30
2018-09-18T06:55:47.856Z,95.50
2018-09-18T06:58:17.917Z,95.30
2018-09-18T07:00:47.811Z,95.10
2018-09-18T07:03:16.468Z,95.00
2018-09-18T07:05:45.276Z,95.80
2018-09-18T07:08:13.889Z,95.10
2018-09-18T07:10:43.831Z,95.10
2018-09-18T07:13:12.577Z,95.10
2018-09-18T07:15:43.307Z,94.80
2018-09-18T07:18:12.112Z,94.50
2018-09-18T07:20:40.989Z,94.90
2018-09-18T07:23:09.762Z,94.80
2018-09-18T07:25:38.638Z,94.50
2018-09-18T07:28:07.763Z,94.30
2018-09-18T07:30:36.616Z,94.20
2018-09-18T07:33:05.286Z,93.90
2018-09-18T07:35:33.957Z,93.60
2018-09-18T07:38:02.772Z,93.50
2018-09-18T07:40:38.062Z,93.20
2018-09-18T07:43:18.575Z,93.00
2018-09-18T07:45:47.619Z,92.80
2018-09-18T07:48:16.285Z,92.50
2018-09-18T07:50:45.133Z,92.40
2018-09-18T07:53:13.965Z,92.50
2018-09-18T07:55:42.672Z,92.50
2018-09-18T07:58:11.314Z,92.60
2018-09-18T08:00:41.170Z,92.30
2018-09-18T08:03:15.810Z,92.40
2018-09-18T08:05:53.083Z,92.10
2018-09-18T08:08:22.301Z,91.80
2018-09-18T08:10:51.267Z,91.80
2018-09-18T08:13:25.360Z,91.70
2018-09-18T08:16:03.913Z,91.30
2018-09-18T08:18:32.937Z,90.80
2018-09-18T08:21:03.890Z,90.50
2018-09-18T08:23:32.650Z,90.20
2018-09-18T08:26:01.697Z,90.10
2018-09-18T08:28:33.549Z,89.30
2018-09-18T08:31:07.052Z,89.50
2018-09-18T08:33:35.735Z,89.10
2018-09-18T08:36:04.638Z,87.90
2018-09-18T08:38:33.386Z,87.80
2018-09-18T08:41:05.944Z,87.80
2018-09-18T08:43:38.803Z,86.00
2018-09-18T08:46:07.826Z,88.20
2018-09-18T08:48:36.808Z,87.90
2018-09-18T08:51:05.774Z,87.20
2018-09-18T08:53:34.814Z,87.40
2018-09-18T08:56:03.922Z,87.00
2018-09-18T08:58:32.866Z,86.90
2018-09-18T09:01:02.112Z,86.60
2018-09-18T09:03:30.965Z,85.80
2018-09-18T09:06:00.044Z,85.40
2018-09-18T09:08:28.839Z,85.20
2018-09-18T09:10:57.466Z,84.70
2018-09-18T09:13:26.460Z,84.80
2018-09-18T09:15:55.553Z,83.50
2018-09-18T09:18:24.300Z,83.50
2018-09-18T09:20:56.061Z,82.20
2018-09-18T09:23:24.701Z,82.50
2018-09-18T09:25:53.803Z,81.50
2018-09-18T09:28:22.573Z,81.20
2018-09-18T09:30:51.498Z,81.20
2018-09-18T09:33:23.058Z,80.70
2018-09-18T09:35:52.147Z,80.50
2018-09-18T09:38:23.047Z,79.10
2018-09-18T09:40:53.425Z,79.80
2018-09-18T09:43:35.151Z,79.70
2018-09-18T09:46:06.191Z,79.10
2018-09-18T09:48:40.653Z,78.40
2018-09-18T09:51:14.535Z,77.80
2018-09-18T09:53:43.364Z,77.60
2018-09-18T09:56:12.169Z,77.70
2018-09-18T09:58:47.498Z,77.10
2018-09-18T10:01:22.719Z,77.10
2018-09-18T10:03:57.178Z,76.90
2018-09-18T10:06:26.537Z,76.90
2018-09-18T10:08:55.546Z,76.50
2018-09-18T10:11:24.332Z,74.10
2018-09-18T10:13:53.054Z,73.20
2018-09-18T10:16:21.851Z,68.40
2018-09-18T10:18:50.691Z,68.20
2018-09-18T10:21:19.445Z,64.60
2018-09-18T10:23:48.173Z,65.10
2018-09-18T10:26:17.115Z,66.10
2018-09-18T10:28:48.500Z,62.10
2018-09-18T10:31:17.164Z,57.70
2018-09-18T10:33:49.909Z,54.80
2018-09-18T10:36:21.572Z,53.50
2018-09-18T10:38:50.691Z,56.40
2018-09-18T10:41:19.736Z,55.00
2018-09-18T10:43:48.476Z,53.60
2018-09-18T10:46:17.311Z,52.40
2018-09-18T10:48:50.113Z,51.60
2018-09-18T10:51:19.124Z,49.40
2018-09-18T10:53:48.245Z,49.60
2018-09-18T10:56:16.959Z,50.20
2018-09-18T10:58:45.947Z,48.50
2018-09-18T11:01:14.775Z,46.70
2018-09-18T11:03:43.711Z,46.80
2018-09-18T11:06:13.529Z,47.30
2018-09-18T11:08:42.178Z,47.60
2018-09-18T11:11:11.036Z,46.20
2018-09-18T11:13:40.723Z,46.00
2018-09-18T11:16:09.520Z,45.20
2018-09-18T11:18:39.166Z,44.20
2018-09-18T11:21:07.928Z,43.20
2018-09-18T11:23:36.964Z,41.80
2018-09-18T11:26:05.997Z,43.90
2018-09-18T11:28:36.649Z,46.20
2018-09-18T11:31:05.658Z,45.10
2018-09-18T11:33:34.574Z,49.00
2018-09-18T11:36:04.175Z,47.30
2018-09-18T11:38:35.000Z,44.40
2018-09-18T11:41:09.545Z,42.80
2018-09-18T11:43:38.553Z,43.70
2018-09-18T11:46:07.979Z,45.30
2018-09-18T11:48:36.710Z,42.70
2018-09-18T11:51:07.902Z,41.50
2018-09-18T11:53:37.353Z,40.60
2018-09-18T11:56:07.386Z,38.70
2018-09-18T11:58:38.317Z,38.40
2018-09-18T12:01:08.768Z,41.90
2018-09-18T12:03:39.909Z,43.30
2018-09-18T12:06:14.783Z,42.30
2018-09-18T12:08:43.872Z,39.40
2018-09-18T12:11:12.785Z,36.90
2018-09-18T12:13:41.654Z,35.90
2018-09-18T12:16:10.323Z,37.70
2018-09-18T12:18:39.122Z,38.70
2018-09-18T12:21:08.129Z,38.50
2018-09-18T12:23:37.102Z,38.80
2018-09-18T12:26:05.814Z,39.40
2018-09-18T12:28:35.361Z,39.80
2018-09-18T12:31:04.324Z,39.80
2018-09-18T12:33:33.225Z,39.60
2018-09-18T12:36:02.875Z,39.50
2018-09-18T12:38:31.682Z,38.10
2018-09-18T12:41:00.844Z,37.00
2018-09-18T12:43:30.236Z,36.30
2018-09-18T12:45:59.309Z,36.20
2018-09-18T12:48:28.160Z,37.00
2018-09-18T12:50:56.863Z,37.50
2018-09-18T12:53:25.735Z,37.90
2018-09-18T12:55:54.644Z,38.00
2018-09-18T12:58:23.709Z,38.00
2018-09-18T13:00:52.393Z,37.90
2018-09-18T13:03:21.146Z,36.80
2018-09-18T13:05:49.991Z,36.30
2018-09-18T13:08:21.311Z,35.20
2018-09-18T13:10:50.086Z,34.50
2018-09-18T13:13:18.993Z,33.90
2018-09-18T13:15:47.748Z,33.80
2018-09-18T13:18:16.564Z,32.50
2018-09-18T13:20:45.470Z,32.40
2018-09-18T13:23:14.254Z,32.30
2018-09-18T13:25:50.103Z,32.20
2018-09-18T13:28:31.943Z,31.80
2018-09-18T13:31:07.809Z,31.80
2018-09-18T13:33:39.241Z,31.50
2018-09-18T13:36:09.728Z,31.90
2018-09-18T13:38:42.407Z,32.40
2018-09-18T13:41:11.893Z,32.40
2018-09-18T13:43:41.638Z,32.80
2018-09-18T13:46:12.432Z,33.20
2018-09-18T13:48:44.237Z,35.30
2018-09-18T13:51:13.123Z,38.60
2018-09-18T13:53:41.882Z,40.60
2018-09-18T13:56:10.692Z,42.30
2018-09-18T13:58:42.985Z,42.70
2018-09-18T14:01:16.399Z,42.90
2018-09-18T14:03:45.589Z,45.30
2018-09-18T14:06:14.855Z,46.10
2018-09-18T14:08:45.408Z,45.40
2018-09-18T14:11:14.196Z,45.30
2018-09-18T14:13:43.573Z,43.70
2018-09-18T14:16:12.417Z,43.30
2018-09-18T14:18:41.664Z,43.50
2018-09-18T14:21:10.400Z,43.70
2018-09-18T14:23:40.506Z,44.80
2018-09-18T14:26:10.726Z,44.20
2018-09-18T14:28:41.007Z,45.70
2018-09-18T14:31:11.647Z,44.90
2018-09-18T14:33:44.130Z,44.50
2018-09-18T14:36:13.628Z,44.70
2018-09-18T14:38:46.626Z,43.70
2018-09-18T14:41:31.747Z,43.70
2018-09-18T14:44:00.937Z,44.10
2018-09-18T14:46:29.790Z,43.70
2018-09-18T14:48:58.524Z,44.40
2018-09-18T14:51:32.077Z,44.80
2018-09-18T14:54:01.197Z,45.00
2018-09-18T14:56:29.824Z,45.80
2018-09-18T14:59:00.032Z,45.50
2018-09-18T15:01:30.850Z,45.90
2018-09-18T15:04:04.421Z,46.50
2018-09-18T15:06:33.436Z,45.90
2018-09-18T15:09:03.436Z,45.60
2018-09-18T15:11:32.183Z,45.80
2018-09-18T15:14:01.222Z,43.70
2018-09-18T15:16:31.231Z,42.80
2018-09-18T15:19:00.409Z,46.50
2018-09-18T15:21:29.063Z,47.60
2018-09-18T15:24:01.181Z,46.40
2018-09-18T15:26:32.788Z,48.20
2018-09-18T15:29:01.919Z,47.30
2018-09-18T15:31:30.837Z,47.60
2018-09-18T15:34:09.177Z,48.00
2018-09-18T15:36:37.935Z,47.50
2018-09-18T15:39:10.905Z,49.00
2018-09-18T15:41:40.374Z,49.80
2018-09-18T15:44:11.399Z,46.60
2018-09-18T15:46:41.265Z,47.70
2018-09-18T15:49:09.926Z,47.60
2018-09-18T15:51:41.245Z,48.70
2018-09-18T15:54:10.031Z,49.60
2018-09-18T15:56:38.939Z,49.30
2018-09-18T15:59:08.538Z,49.90
2018-09-18T16:01:37.964Z,49.50
2018-09-18T16:04:10.155Z,50.00
2018-09-18T16:06:40.286Z,50.20
2018-09-18T16:09:10.690Z,51.20
2018-09-18T16:11:41.250Z,52.00
2018-09-18T16:14:17.162Z,53.10
2018-09-18T16:16:45.990Z,53.50
2018-09-18T16:19:20.897Z,54.40
2018-09-18T16:21:51.194Z,54.60
2018-09-18T16:24:35.989Z,54.70
2018-09-18T16:27:07.915Z,55.10
2018-09-18T16:29:47.499Z,55.70
2018-09-18T16:32:34.076Z,56.30
2018-09-18T16:35:11.315Z,57.10
2018-09-18T16:37:55.112Z,57.90
2018-09-18T16:40:30.139Z,58.40
2018-09-18T16:43:02.817Z,58.10
2018-09-18T16:45:31.617Z,59.40
2018-09-18T16:48:02.045Z,58.90
2018-09-18T16:50:31.490Z,59.70
2018-09-18T16:53:00.242Z,60.20
2018-09-18T16:55:29.013Z,60.70
2018-09-18T16:57:58.255Z,61.20
2018-09-18T17:00:34.666Z,63.00
2018-09-18T17:03:05.207Z,63.60
2018-09-18T17:05:34.079Z,64.70
2018-09-18T17:08:03.416Z,65.90
2018-09-18T17:10:35.071Z,66.70
2018-09-18T17:13:05.014Z,67.70
2018-09-18T17:15:38.452Z,68.20
2018-09-18T17:18:13.331Z,68.60
2018-09-18T17:20:42.280Z,68.50
2018-09-18T17:23:11.312Z,69.10
2018-09-18T17:25:42.913Z,69.70
2018-09-18T17:28:11.928Z,70.00
2018-09-18T17:30:42.422Z,70.20
2018-09-18T17:33:11.033Z,71.50
2018-09-18T17:35:40.328Z,72.10
2018-09-18T17:38:09.317Z,72.30
2018-09-18T17:40:38.084Z,73.00
2018-09-18T17:43:10.721Z,73.30
2018-09-18T17:45:39.793Z,73.70
2018-09-18T17:48:10.466Z,73.90
2018-09-18T17:50:40.505Z,74.70
2018-09-18T17:53:09.396Z,75.00
2018-09-18T17:55:40.902Z,75.30
2018-09-18T17:58:13.477Z,75.50
2018-09-18T18:00:46.231Z,76.00
2018-09-18T18:03:18.350Z,76.10
2018-09-18T18:05:48.057Z,76.40
2018-09-18T18:08:25.073Z,76.80
2018-09-18T18:10:54.288Z,77.20
2018-09-18T18:13:24.464Z,77.70
2018-09-18T18:15:53.891Z,78.00
2018-09-18T18:18:22.740Z,78.60
2018-09-18T18:20:51.827Z,78.80
2018-09-18T18:23:23.139Z,79.40
2018-09-18T18:25:53.302Z,79.80
2018-09-18T18:28:23.220Z,80.50
2018-09-18T18:30:52.049Z,80.90
2018-09-18T18:33:23.120Z,81.10
2018-09-18T18:36:01.601Z,81.70
2018-09-18T18:38:30.376Z,81.50
2018-09-18T18:41:02.802Z,81.60
2018-09-18T18:43:31.565Z,81.90
2018-09-18T18:46:00.350Z,82.00
2018-09-18T18:48:29.338Z,82.20
2018-09-18T18:50:58.255Z,82.50
2018-09-18T18:53:26.954Z,82.50
2018-09-18T18:55:57.134Z,82.80
2018-09-18T18:58:32.838Z,83.10
2018-09-18T19:01:02.050Z,83.30
2018-09-18T19:03:30.957Z,83.30
2018-09-18T19:06:01.752Z,83.30
2018-09-18T19:08:30.697Z,83.70
2018-09-18T19:10:59.731Z,83.80
2018-09-18T19:13:34.231Z,83.70
2018-09-18T19:16:04.211Z,84.30
2018-09-18T19:18:37.158Z,84.40
2018-09-18T19:21:07.417Z,84.70
2018-09-18T19:23:37.813Z,85.10
2018-09-18T19:26:12.250Z,85.30
2018-09-18T19:28:41.253Z,85.30
2018-09-18T19:31:10.053Z,85.30
2018-09-18T19:33:39.241Z,85.60
2018-09-18T19:36:07.936Z,85.80
2018-09-18T19:38:37.759Z,86.20
2018-09-18T19:41:06.999Z,84.70
2018-09-18T19:43:37.351Z,86.90
2018-09-18T19:46:09.100Z,86.90
2018-09-18T19:48:39.348Z,87.10
2018-09-18T19:51:10.420Z,87.30
2018-09-18T19:53:42.119Z,86.80
2018-09-18T19:56:11.262Z,84.80
2018-09-18T19:58:40.940Z,84.60
2018-09-18T20:01:10.129Z,83.80
2018-09-18T20:03:40.374Z,82.20
2018-09-18T20:06:09.812Z,81.60
2018-09-18T20:08:38.524Z,83.20
2018-09-18T20:11:09.090Z,86.30
2018-09-18T20:13:37.900Z,85.30
2018-09-18T20:16:09.595Z,86.00
2018-09-18T20:18:38.284Z,86.10
2018-09-18T20:21:09.137Z,84.60
2018-09-18T20:23:37.988Z,86.90
2018-09-18T20:26:09.344Z,86.90
2018-09-18T20:28:42.789Z,87.30
2018-09-18T20:31:17.925Z,87.00
2018-09-18T20:33:46.958Z,86.50
2018-09-18T20:36:20.975Z,86.80
2018-09-18T20:38:49.801Z,86.80
2018-09-18T20:41:24.295Z,86.30
2018-09-18T20:43:53.755Z,86.30
2018-09-18T20:46:22.584Z,86.10
2018-09-18T20:48:52.575Z,86.30
2018-09-18T20:51:22.083Z,86.80
2018-09-18T20:53:53.153Z,87.50
2018-09-18T20:56:22.390Z,88.40
2018-09-18T20:58:51.764Z,89.40
2018-09-18T21:01:20.407Z,90.10
2018-09-18T21:03:49.110Z,90.30
2018-09-18T21:06:17.859Z,90.40
2018-09-18T21:08:46.630Z,90.60
2018-09-18T21:11:15.606Z,90.70
2018-09-18T21:13:44.550Z,90.90
2018-09-18T21:16:13.971Z,90.40
2018-09-18T21:18:42.963Z,89.10
2018-09-18T21:21:11.746Z,89.40
2018-09-18T21:23:40.477Z,88.50
2018-09-18T21:26:10.708Z,88.40
2018-09-18T21:28:39.611Z,88.30
2018-09-18T21:31:08.632Z,88.60
2018-09-18T21:33:37.375Z,89.80
2018-09-18T21:36:10.286Z,89.80
2018-09-18T21:38:41.680Z,89.90
2018-09-18T21:41:15.713Z,88.90
2018-09-18T21:43:44.675Z,90.10
2018-09-18T21:46:18.886Z,90.60
2018-09-18T21:48:48.864Z,90.80
2018-09-18T21:51:17.630Z,90.90
2018-09-18T21:53:46.413Z,90.70
2018-09-18T21:56:23.021Z,90.90
2018-09-18T21:58:51.771Z,90.70
2018-09-18T22:01:22.921Z,90.80
2018-09-18T22:03:51.756Z,90.70
2018-09-18T22:06:20.502Z,91.00
2018-09-18T22:08:50.773Z,91.00
2018-09-18T22:11:19.552Z,90.90
2018-09-18T22:13:48.370Z,91.00
2018-09-18T22:16:17.232Z,90.90
2018-09-18T22:18:45.983Z,90.80
2018-09-18T22:21:14.802Z,90.40
2018-09-18T22:23:44.687Z,89.90
2018-09-18T22:26:14.809Z,89.70
2018-09-18T22:28:43.676Z,89.60
2018-09-18T22:31:12.372Z,89.30
2018-09-18T22:33:42.287Z,88.20
2018-09-18T22:36:11.047Z,88.30
2018-09-18T22:38:39.844Z,87.80
2018-09-18T22:41:08.555Z,87.80
2018-09-18T22:43:37.378Z,87.20
2018-09-18T22:46:08.255Z,87.70
2018-09-18T22:48:38.996Z,87.50
2018-09-18T22:51:08.966Z,87.00
2018-09-18T22:53:39.278Z,86.90
2018-09-18T22:56:18.035Z,87.10
2018-09-18T22:58:47.131Z,87.30
2018-09-18T23:01:15.806Z,87.30
2018-09-18T23:03:46.484Z,87.70
2018-09-18T23:06:17.084Z,87.30
2018-09-18T23:08:48.036Z,87.60
2018-09-18T23:11:16.883Z,87.90
2018-09-18T23:13:45.699Z,88.50
2018-09-18T23:16:14.444Z,88.20
2018-09-18T23:18:43.317Z,88.30
2018-09-18T23:21:12.070Z,88.20
2018-09-18T23:23:41.830Z,88.50
2018-09-18T23:26:13.701Z,88.30
2018-09-18T23:28:42.420Z,88.30
2018-09-18T23:31:22.918Z,88.60
2018-09-18T23:33:51.695Z,88.80
2018-09-18T23:36:20.547Z,89.00
2018-09-18T23:38:49.337Z,88.60
2018-09-18T23:41:18.179Z,88.50
2018-09-18T23:43:47.022Z,88.70
2018-09-18T23:46:16.126Z,88.50
2018-09-18T23:48:44.844Z,88.70
2018-09-18T23:51:16.248Z,88.40
2018-09-18T23:53:46.017Z,88.30
2018-09-18T23:56:14.907Z,88.40
2018-09-18T23:58:43.826Z,88.40
